createdAt,value
2019-05-29T00:01:21.868Z,9.03
2019-05-29T00:04:26.570Z,8.50
2019-05-29T00:07:31.119Z,8.20
2019-05-29T00:10:35.664Z,8.27
2019-05-29T00:13:40.277Z,8.93
2019-05-29T00:16:44.801Z,8.47
2019-05-29T00:19:49.828Z,7.67
2019-05-29T00:22:54.370Z,8.93
2019-05-29T00:26:00.418Z,8.37
2019-05-29T00:29:05.656Z,5.97
2019-05-29T00:32:11.953Z,7.60
2019-05-29T00:35:16.671Z,9.23
2019-05-29T00:38:21.259Z,7.03
2019-05-29T00:41:25.806Z,6.30
2019-05-29T00:44:42.889Z,5.77
2019-05-29T00:47:36.639Z,6.00
2019-05-29T00:50:41.307Z,5.73
2019-05-29T00:53:45.850Z,4.47
2019-05-29T00:56:50.477Z,6.07
2019-05-29T00:59:54.950Z,3.30
2019-05-29T01:02:59.535Z,3.30
2019-05-29T01:06:04.099Z,2.53
2019-05-29T01:09:10.298Z,2.83
2019-05-29T01:12:14.845Z,2.27
2019-05-29T01:15:19.614Z,2.10
2019-05-29T01:18:24.229Z,3.63
2019-05-29T01:21:28.840Z,2.93
2019-05-29T01:24:33.390Z,3.47
2019-05-29T01:27:37.938Z,3.53
2019-05-29T01:30:42.566Z,4.10
2019-05-29T01:33:47.147Z,3.30
2019-05-29T01:36:51.658Z,2.97
2019-05-29T01:39:56.207Z,3.07
2019-05-29T01:43:00.839Z,3.33
2019-05-29T01:46:05.773Z,4.50
2019-05-29T01:49:10.391Z,4.93
2019-05-29T01:52:15.474Z,3.90
2019-05-29T01:55:20.129Z,4.47
2019-05-29T01:58:24.740Z,4.53
2019-05-29T02:01:29.232Z,4.53
2019-05-29T02:04:33.898Z,5.83
2019-05-29T02:07:38.507Z,5.17
2019-05-29T02:10:43.098Z,5.87
2019-05-29T02:13:47.613Z,4.20
2019-05-29T02:16:52.152Z,3.40
2019-05-29T02:19:56.790Z,6.77
2019-05-29T02:23:01.368Z,4.90
2019-05-29T02:26:06.005Z,6.57
2019-05-29T02:29:10.532Z,4.30
2019-05-29T02:32:17.528Z,4.20
2019-05-29T02:35:23.045Z,5.30
2019-05-29T02:38:29.109Z,4.93
2019-05-29T02:41:34.104Z,4.23
2019-05-29T02:44:38.828Z,4.00
2019-05-29T02:47:43.413Z,3.20
2019-05-29T02:50:47.970Z,3.43
2019-05-29T02:53:52.578Z,2.40
2019-05-29T02:56:57.127Z,3.50
2019-05-29T03:00:01.817Z,6.60
2019-05-29T03:03:06.399Z,4.30
2019-05-29T03:06:11.713Z,5.20
2019-05-29T03:09:16.287Z,4.70
2019-05-29T03:12:20.963Z,5.10
2019-05-29T03:15:25.722Z,4.87
2019-05-29T03:18:32.413Z,5.63
2019-05-29T03:21:36.903Z,4.63
2019-05-29T03:24:41.522Z,5.63
2019-05-29T03:27:46.036Z,4.80
2019-05-29T03:30:50.669Z,4.07
2019-05-29T03:33:55.522Z,4.50
2019-05-29T03:37:00.146Z,5.80
2019-05-29T03:40:05.034Z,6.20
2019-05-29T03:43:09.651Z,5.23
2019-05-29T03:46:29.777Z,4.40
2019-05-29T03:49:21.297Z,3.63
2019-05-29T03:52:26.342Z,5.07
2019-05-29T03:55:31.675Z,3.37
2019-05-29T03:58:37.952Z,3.93
2019-05-29T04:01:42.676Z,4.70
2019-05-29T04:04:47.189Z,4.13
2019-05-29T04:07:51.795Z,5.37
2019-05-29T04:10:56.325Z,4.70
2019-05-29T04:14:00.872Z,3.73
2019-05-29T04:17:06.886Z,4.07
2019-05-29T04:20:12.644Z,4.63
2019-05-29T04:23:19.086Z,4.70
2019-05-29T04:26:25.607Z,4.17
2019-05-29T04:29:31.744Z,3.33
2019-05-29T04:32:38.486Z,4.90
2019-05-29T04:35:43.307Z,3.87
2019-05-29T04:38:47.864Z,3.77
2019-05-29T04:41:52.358Z,5.10
2019-05-29T04:44:56.933Z,2.40
2019-05-29T04:48:01.576Z,3.10
2019-05-29T04:51:06.167Z,2.90
2019-05-29T04:54:10.763Z,2.63
2019-05-29T04:57:15.350Z,2.37
2019-05-29T05:00:19.954Z,3.23
2019-05-29T05:03:25.666Z,2.77
2019-05-29T05:06:31.192Z,3.53
2019-05-29T05:09:35.868Z,2.73
2019-05-29T05:12:41.350Z,2.30
2019-05-29T05:15:46.838Z,5.70
2019-05-29T05:18:51.380Z,4.80
2019-05-29T05:21:55.960Z,3.07
2019-05-29T05:25:02.006Z,3.63
2019-05-29T05:28:06.560Z,2.17
2019-05-29T05:31:11.555Z,2.10
2019-05-29T05:34:16.406Z,2.17
2019-05-29T05:37:21.037Z,1.70
2019-05-29T05:40:25.696Z,1.57
2019-05-29T05:43:30.691Z,1.97
2019-05-29T05:46:35.269Z,1.97
2019-05-29T05:49:39.909Z,2.00
2019-05-29T05:52:46.296Z,2.30
2019-05-29T05:55:50.956Z,1.50
2019-05-29T05:58:55.482Z,1.67
2019-05-29T06:02:00.102Z,1.60
2019-05-29T06:05:04.891Z,2.20
2019-05-29T06:08:09.427Z,2.07
2019-05-29T06:11:14.006Z,2.43
2019-05-29T06:14:18.590Z,2.87
2019-05-29T06:17:23.244Z,2.17
2019-05-29T06:20:27.798Z,3.77
2019-05-29T06:23:32.775Z,2.33
2019-05-29T06:26:37.491Z,4.17
2019-05-29T06:29:43.464Z,2.77
2019-05-29T06:32:48.187Z,2.23
2019-05-29T06:35:52.825Z,1.90
2019-05-29T06:38:57.374Z,2.90
2019-05-29T06:42:02.001Z,2.70
2019-05-29T06:45:07.302Z,2.00
2019-05-29T06:48:14.920Z,2.43
2019-05-29T06:51:19.536Z,2.80
2019-05-29T06:54:24.161Z,2.40
2019-05-29T06:57:28.716Z,4.00
2019-05-29T07:00:35.657Z,2.70
2019-05-29T07:03:39.722Z,2.07
2019-05-29T07:06:44.806Z,2.17
2019-05-29T07:09:49.931Z,1.93
2019-05-29T07:12:54.501Z,1.90
2019-05-29T07:15:59.196Z,2.43
2019-05-29T07:19:25.663Z,3.23
2019-05-29T07:22:10.181Z,2.27
2019-05-29T07:25:14.750Z,2.63
2019-05-29T07:28:19.342Z,3.17
2019-05-29T07:31:23.987Z,2.57
2019-05-29T07:34:28.509Z,3.43
2019-05-29T07:37:33.100Z,2.77
2019-05-29T07:40:38.406Z,2.80
2019-05-29T07:43:43.864Z,3.33
2019-05-29T07:46:48.881Z,2.17
2019-05-29T07:49:53.616Z,2.33
2019-05-29T07:52:58.391Z,4.33
2019-05-29T07:56:02.971Z,2.23
2019-05-29T07:59:07.893Z,3.60
2019-05-29T08:02:12.424Z,3.67
2019-05-29T08:05:18.278Z,3.33
2019-05-29T08:08:22.810Z,3.07
2019-05-29T08:11:27.475Z,2.17
2019-05-29T08:14:32.057Z,2.33
2019-05-29T08:17:36.664Z,3.33
2019-05-29T08:20:41.866Z,2.20
2019-05-29T08:23:46.616Z,3.23
2019-05-29T08:26:51.267Z,2.73
2019-05-29T08:29:55.927Z,3.30
2019-05-29T08:33:00.402Z,3.80
2019-05-29T08:36:05.011Z,4.37
2019-05-29T08:39:09.644Z,3.80
2019-05-29T08:42:23.650Z,2.40
2019-05-29T08:45:20.527Z,3.60
2019-05-29T08:48:28.211Z,2.60
2019-05-29T08:51:32.774Z,3.00
2019-05-29T08:54:37.364Z,2.27
2019-05-29T08:57:42.545Z,3.20
2019-05-29T09:00:50.542Z,2.07
2019-05-29T09:03:53.630Z,3.20
2019-05-29T09:06:58.445Z,3.00
2019-05-29T09:10:02.997Z,2.80
2019-05-29T09:13:07.607Z,2.60
2019-05-29T09:16:12.152Z,3.67
2019-05-29T09:19:16.864Z,2.60
2019-05-29T09:22:23.011Z,2.70
2019-05-29T09:25:27.677Z,3.17
2019-05-29T09:28:30.544Z,3.57
2019-05-29T09:31:35.091Z,3.10
2019-05-29T09:34:39.670Z,2.30
2019-05-29T09:37:44.211Z,3.07
2019-05-29T09:40:52.451Z,1.90
2019-05-29T09:43:59.608Z,3.03
2019-05-29T09:47:01.342Z,2.50
2019-05-29T09:50:06.113Z,2.87
2019-05-29T09:53:10.742Z,2.30
2019-05-29T09:56:15.278Z,3.00
2019-05-29T09:59:19.888Z,3.00
2019-05-29T10:02:24.452Z,3.97
2019-05-29T10:05:29.091Z,4.43
2019-05-29T10:08:33.635Z,2.80
2019-05-29T10:11:38.695Z,2.43
2019-05-29T10:14:43.381Z,2.83
2019-05-29T10:17:48.323Z,3.53
2019-05-29T10:20:52.897Z,2.37
2019-05-29T10:23:57.972Z,2.20
2019-05-29T10:27:05.278Z,2.77
2019-05-29T10:30:11.583Z,4.20
2019-05-29T10:33:16.552Z,3.90
2019-05-29T10:36:21.363Z,3.40
2019-05-29T10:39:26.328Z,3.67
2019-05-29T10:42:31.368Z,3.50
2019-05-29T10:45:36.237Z,2.10
2019-05-29T10:48:41.253Z,2.90
2019-05-29T10:52:00.435Z,3.43
2019-05-29T10:54:52.446Z,1.70
2019-05-29T10:57:57.083Z,1.67
2019-05-29T11:01:01.716Z,2.53
2019-05-29T11:04:06.547Z,3.43
2019-05-29T11:07:11.102Z,3.03
2019-05-29T11:10:16.118Z,3.00
2019-05-29T11:13:20.629Z,1.97
2019-05-29T11:16:25.735Z,1.70
2019-05-29T11:19:30.695Z,2.27
2019-05-29T11:22:35.720Z,2.57
2019-05-29T11:25:40.271Z,1.70
2019-05-29T11:28:45.906Z,2.97
2019-05-29T11:31:53.225Z,3.83
2019-05-29T11:34:58.003Z,2.73
2019-05-29T11:38:03.321Z,2.93
2019-05-29T11:41:25.152Z,2.17
2019-05-29T11:44:14.616Z,2.97
2019-05-29T11:47:19.963Z,4.30
2019-05-29T11:50:24.553Z,5.77
2019-05-29T11:53:29.574Z,3.43
2019-05-29T11:56:34.107Z,5.67
2019-05-29T11:59:38.637Z,6.50
2019-05-29T12:02:43.553Z,5.00
2019-05-29T12:05:48.615Z,3.83
2019-05-29T12:08:53.657Z,4.70
2019-05-29T12:12:00.325Z,3.03
2019-05-29T12:15:13.542Z,2.50
2019-05-29T12:18:23.336Z,3.23
2019-05-29T12:21:19.130Z,2.87
2019-05-29T12:24:23.643Z,3.37
2019-05-29T12:27:28.361Z,1.90
2019-05-29T12:30:33.599Z,4.33
2019-05-29T12:33:38.196Z,2.27
2019-05-29T12:36:42.694Z,1.67
2019-05-29T12:39:47.249Z,1.40
2019-05-29T12:42:53.585Z,1.50
2019-05-29T12:45:59.975Z,2.03
2019-05-29T12:49:04.906Z,1.50
2019-05-29T12:52:10.174Z,1.40
2019-05-29T12:55:15.456Z,1.67
2019-05-29T12:58:20.097Z,2.20
2019-05-29T13:01:24.667Z,1.60
2019-05-29T13:04:29.245Z,1.60
2019-05-29T13:07:37.226Z,2.37
2019-05-29T13:10:42.679Z,2.20
2019-05-29T13:13:47.644Z,1.70
2019-05-29T13:16:52.258Z,2.00
2019-05-29T13:20:02.580Z,2.00
2019-05-29T13:23:05.456Z,2.10
2019-05-29T13:26:10.498Z,2.67
2019-05-29T13:29:15.415Z,1.77
2019-05-29T13:32:19.991Z,2.20
2019-05-29T13:35:25.189Z,1.60
2019-05-29T13:38:29.710Z,2.20
2019-05-29T13:41:34.295Z,1.93
2019-05-29T13:44:43.852Z,2.30
2019-05-29T13:47:48.960Z,2.20
2019-05-29T13:50:53.882Z,2.07
2019-05-29T13:54:03.803Z,3.40
2019-05-29T13:57:06.543Z,2.57
2019-05-29T14:00:33.815Z,2.63
2019-05-29T14:03:20.504Z,2.70
2019-05-29T14:06:25.441Z,1.77
2019-05-29T14:09:30.468Z,1.50
2019-05-29T14:12:35.966Z,1.60
2019-05-29T14:15:40.984Z,2.40
2019-05-29T14:18:45.956Z,2.10
2019-05-29T14:21:51.535Z,3.67
2019-05-29T14:24:56.050Z,1.63
2019-05-29T14:28:00.814Z,1.20
2019-05-29T14:31:05.975Z,1.63
2019-05-29T14:34:10.977Z,1.73
2019-05-29T14:37:15.997Z,1.43
2019-05-29T14:40:21.233Z,1.80
2019-05-29T14:43:26.751Z,2.63
2019-05-29T14:46:31.967Z,2.30
2019-05-29T14:49:37.806Z,3.10
2019-05-29T14:52:44.059Z,2.63
2019-05-29T14:55:49.038Z,1.77
2019-05-29T14:58:53.625Z,2.07
2019-05-29T15:01:58.547Z,1.87
2019-05-29T15:05:03.757Z,1.77
2019-05-29T15:08:09.998Z,1.63
2019-05-29T15:11:15.308Z,1.20
2019-05-29T15:14:20.518Z,2.27
2019-05-29T15:17:25.123Z,1.83
2019-05-29T15:20:29.766Z,1.67
2019-05-29T15:23:34.308Z,1.33
2019-05-29T15:26:39.285Z,1.33
2019-05-29T15:29:43.887Z,1.37
2019-05-29T15:32:48.964Z,1.57
2019-05-29T15:35:53.759Z,1.60
2019-05-29T15:38:58.341Z,2.00
2019-05-29T15:42:02.862Z,0.90
2019-05-29T15:45:09.927Z,0.90
2019-05-29T15:48:15.281Z,1.40
2019-05-29T15:51:21.901Z,1.53
2019-05-29T15:54:26.189Z,1.70
2019-05-29T15:57:30.771Z,1.90
2019-05-29T16:00:35.339Z,1.43
2019-05-29T16:03:41.122Z,1.17
2019-05-29T16:06:45.708Z,1.80
2019-05-29T16:09:50.722Z,1.23
2019-05-29T16:12:55.843Z,1.60
2019-05-29T16:16:00.821Z,1.13
2019-05-29T16:19:06.013Z,1.87
2019-05-29T16:22:12.230Z,1.43
2019-05-29T16:25:17.075Z,1.13
2019-05-29T16:28:21.715Z,0.90
2019-05-29T16:31:26.276Z,0.93
2019-05-29T16:34:31.248Z,0.90
2019-05-29T16:37:36.164Z,1.30
2019-05-29T16:40:41.073Z,0.70
2019-05-29T16:43:46.270Z,1.20
2019-05-29T16:46:52.102Z,0.97
2019-05-29T16:49:56.703Z,0.70
2019-05-29T16:53:01.310Z,0.70
2019-05-29T16:56:06.688Z,1.43
2019-05-29T16:59:11.246Z,0.90
2019-05-29T17:02:17.739Z,0.90
2019-05-29T17:05:24.146Z,1.30
2019-05-29T17:08:29.214Z,0.93
2019-05-29T17:11:34.166Z,0.60
2019-05-29T17:14:40.525Z,1.30
2019-05-29T17:17:45.193Z,0.70
2019-05-29T17:20:50.118Z,0.60
2019-05-29T17:23:54.703Z,1.00
2019-05-29T17:26:59.351Z,0.60
2019-05-29T17:30:05.503Z,0.60
2019-05-29T17:33:10.037Z,1.43
2019-05-29T17:36:14.893Z,0.73
2019-05-29T17:39:21.371Z,0.60
2019-05-29T17:42:26.758Z,1.03
2019-05-29T17:45:31.340Z,0.60
2019-05-29T17:48:35.956Z,0.60
2019-05-29T17:51:40.565Z,0.60
2019-05-29T17:54:45.141Z,0.40
2019-05-29T17:57:50.213Z,1.23
2019-05-29T18:00:55.020Z,0.80
2019-05-29T18:03:59.728Z,0.50
2019-05-29T18:07:05.119Z,0.40
2019-05-29T18:10:10.208Z,0.70
2019-05-29T18:13:15.128Z,1.13
2019-05-29T18:16:19.769Z,1.10
2019-05-29T18:19:25.911Z,0.80
2019-05-29T18:22:31.294Z,0.70
2019-05-29T18:25:35.823Z,0.63
2019-05-29T18:28:40.802Z,1.93
2019-05-29T18:31:45.370Z,0.80
2019-05-29T18:34:53.649Z,0.83
2019-05-29T18:38:00.379Z,1.00
2019-05-29T18:41:05.303Z,0.50
2019-05-29T18:44:09.971Z,1.30
2019-05-29T18:47:14.550Z,0.90
2019-05-29T18:50:21.518Z,1.07
2019-05-29T18:53:27.219Z,1.40
2019-05-29T18:56:32.329Z,1.60
2019-05-29T18:59:36.861Z,1.43
2019-05-29T19:02:41.453Z,1.20
2019-05-29T19:05:46.370Z,1.27
2019-05-29T19:08:51.329Z,0.80
2019-05-29T19:11:55.881Z,0.90
2019-05-29T19:15:00.477Z,0.60
2019-05-29T19:18:05.152Z,0.60
2019-05-29T19:21:09.716Z,0.60
2019-05-29T19:24:14.603Z,1.33
2019-05-29T19:27:31.166Z,0.67
2019-05-29T19:30:27.017Z,0.90
2019-05-29T19:33:31.668Z,0.63
2019-05-29T19:36:37.730Z,0.97
2019-05-29T19:39:45.621Z,1.07
2019-05-29T19:42:50.235Z,0.90
2019-05-29T19:45:54.884Z,1.73
2019-05-29T19:48:59.748Z,1.40
2019-05-29T19:52:04.495Z,0.60
2019-05-29T19:55:09.598Z,1.43
2019-05-29T19:58:14.642Z,1.23
2019-05-29T20:01:30.735Z,0.70
2019-05-29T20:04:26.648Z,0.70
2019-05-29T20:07:31.660Z,1.67
2019-05-29T20:10:37.493Z,0.63
2019-05-29T20:13:42.120Z,0.97
2019-05-29T20:16:46.888Z,1.10
2019-05-29T20:19:51.807Z,0.67
2019-05-29T20:22:56.393Z,1.17
2019-05-29T20:26:01.696Z,0.70
2019-05-29T20:29:06.515Z,0.77
2019-05-29T20:32:11.501Z,1.50
2019-05-29T20:35:17.140Z,0.73
2019-05-29T20:38:22.172Z,1.50
2019-05-29T20:41:26.720Z,0.87
2019-05-29T20:44:32.611Z,1.10
2019-05-29T20:47:37.968Z,0.60
2019-05-29T20:50:43.506Z,1.63
2019-05-29T20:53:48.564Z,0.90
2019-05-29T20:56:53.602Z,0.77
2019-05-29T20:59:58.155Z,0.60
2019-05-29T21:03:03.475Z,1.60
2019-05-29T21:06:08.137Z,1.73
2019-05-29T21:09:12.966Z,1.63
2019-05-29T21:12:17.773Z,0.90
2019-05-29T21:15:22.804Z,0.73
2019-05-29T21:18:27.405Z,0.70
2019-05-29T21:21:32.311Z,1.07
2019-05-29T21:24:38.512Z,0.73
2019-05-29T21:27:48.777Z,1.73
2019-05-29T21:30:50.886Z,1.20
2019-05-29T21:33:55.795Z,1.17
2019-05-29T21:37:00.783Z,1.20
2019-05-29T21:40:06.029Z,0.83
2019-05-29T21:43:10.954Z,0.97
2019-05-29T21:46:15.569Z,0.80
2019-05-29T21:49:20.280Z,1.07
2019-05-29T21:52:24.896Z,0.83
2019-05-29T21:55:29.831Z,0.60
2019-05-29T21:58:34.744Z,0.80
2019-05-29T22:01:39.946Z,0.90
2019-05-29T22:04:44.653Z,1.27
2019-05-29T22:07:49.215Z,1.63
2019-05-29T22:10:55.268Z,0.80
2019-05-29T22:14:00.684Z,0.70
2019-05-29T22:17:05.938Z,1.10
2019-05-29T22:20:10.716Z,1.27
2019-05-29T22:23:15.315Z,1.23
2019-05-29T22:26:19.901Z,1.13
2019-05-29T22:29:25.039Z,0.80
2019-05-29T22:32:29.631Z,1.03
2019-05-29T22:35:34.307Z,1.07
2019-05-29T22:38:39.274Z,0.90
2019-05-29T22:41:44.715Z,1.00
2019-05-29T22:44:49.296Z,0.80
2019-05-29T22:47:53.858Z,1.43
2019-05-29T22:50:58.410Z,1.53
2019-05-29T22:54:03.790Z,1.07
2019-05-29T22:57:09.168Z,1.10
2019-05-29T23:00:15.116Z,2.03
2019-05-29T23:03:20.018Z,1.40
2019-05-29T23:06:24.612Z,1.07
2019-05-29T23:09:29.194Z,0.87
2019-05-29T23:12:33.706Z,0.80
2019-05-29T23:15:39.059Z,1.40
2019-05-29T23:18:43.657Z,1.53
2019-05-29T23:21:48.226Z,0.90
2019-05-29T23:24:54.838Z,1.33
2019-05-29T23:28:00.969Z,1.37
2019-05-29T23:31:06.161Z,1.60
2019-05-29T23:34:10.746Z,0.90
2019-05-29T23:37:15.640Z,1.83
2019-05-29T23:40:20.180Z,0.77
2019-05-29T23:43:24.788Z,2.17
2019-05-29T23:46:29.916Z,1.13
2019-05-29T23:49:34.469Z,0.80
2019-05-29T23:52:39.191Z,1.27
2019-05-29T23:55:43.786Z,0.90
2019-05-29T23:58:48.331Z,1.03
